AirNav   ATP
 
 553 users online  

ME6 Wales Airport
Wales, Maine, USA

GOING TO WALES?


FAA INFORMATION EFFECTIVE 09 NOVEMBER 2017

Location

FAA Identifier: ME6
Lat/Long: 44-10-28.3000N / 070-01-08.2000W
44-10.471667N / 070-01.136667W
44.1745278 / -70.0189444
(estimated)
Elevation: 210 ft. / 64 m (estimated)
Variation: 17W (1995)
From city: 2 miles SSW of WALES, ME
Time zone: UTC -5 (UTC -4 during Daylight Saving Time)
Zip code: 04280

Airport Operations

Airport use: Open to the public
Activation date: 06/1999
Control tower: no
ARTCC: BOSTON CENTER
FSS: BANGOR FLIGHT SERVICE STATION
NOTAMs facility: BGR (NOTAM-D service available)
Attendance: UNATNDD
Wind indicator: yes
Segmented circle: no

Airport Communications

CTAF: 122.9
WX ASOS at AUG (13 nm NE): 118.325 (207-623-0432)
WX AWOS-3PT at LEW (14 nm SW): 118.025 (207-783-2806)
WX AWOS-AV at BXM (17 nm S): 134.875 (207-409-1747)
WX ASOS-A at IWI (18 nm SE): 135.725 (207-882-8094)
  • CLNC DLVY THRU FLIGHT SERVICES 1-800-WX-BRIEF.

Nearby radio navigation aids

VOR radial/distance  VOR name  Freq  Var
AUGr246/12.9AUGUSTA VOR/DME111.4018W

Airport Services

Runway Information

Runway 4/22

Dimensions: 2100 x 80 ft. / 640 x 24 m
Surface: turf, in good condition
SOFT IN SPRING; CALL PRIOR TO LNDG 207-754-1372.
Runway edge markings: HAS WHITE PLASTIC BARREL EDGE MARKERS .
HAS WHITE PLASTIC BARREL MARKERS ALONG SIDE OF RY WITH THLD MKD WITH SINGLE WHITE BARREL.
RUNWAY 4  RUNWAY 22
Traffic pattern: leftleft
Markings: NSTDNSTD
Obstructions: 15 ft. gnd, 20 ft. from runway, 70 ft. left and right of centerline40 ft. tree, 200 ft. from runway, 71 ft. left of centerline, 5:1 slope to clear

Airport Ownership and Management from official FAA records

Ownership: Privately-owned
Owner: THOMAS P. O'CONNELL
222 RIDGE ROAD
WALES, ME 04280
Phone (207) 754-1372
Manager: THOMAS P. CONNELL
222 RIDGE ROAD
WALES, ME 04259
Phone (207) 754-1372

Airport Operational Statistics

Aircraft operations: avg 25/month *
83% local general aviation
17% transient general aviation
* for 12-month period ending 10 August 2016

Additional Remarks

1,239 FT MSL TWR, 7,000 FT SE & 968 FT MSL TWR 9,600 FT SSE OF ARPT.
TWR 9,500 S.
ARPT CLSD NOV-MAY; EXCEPT FOR SKIING.
AIRCRAFT SHOULD MONITOR 122.8 IN VICINITY OF AIRPORT.

Instrument Procedures

There are no published instrument procedures at ME6.

Some nearby airports with instrument procedures:

KAUG - Augusta State Airport (13 nm NE)
KLEW - Auburn/Lewiston Municipal Airport (14 nm SW)
KBXM - Brunswick Executive Airport (17 nm S)
KIWI - Wiscasset Airport (18 nm SE)
81B - Oxford County Regional Airport (20 nm W)
 
Loc | Ops | Rwys | IFR | FBO | Links
Com | Nav | Svcs | Stats | Notes

Auburn-Lewiston Municipal Airport
 
Area around ME6 (Wales Airport)
 
Road maps at: MapQuest Bing Google
 
Aerial photo
WARNING: Photo may not be current or correct
Aerial photo of ME6 (Wales Airport)
Do you have a better or more recent aerial photo of Wales Airport that you would like to share? If so, please send us your photo.

 
Sectional chart

 
Airport distance calculator
Flying to Wales Airport? Find the distance to fly.

From to ME6

Sunrise and sunset
Times for 18-Nov-2017
 Local
(UTC-5)
 Zulu
(UTC)
Morning civil twilight06:0911:09
Sunrise06:4011:40
Sunset16:1021:10
Evening civil twilight16:4221:42

Current date and time
Zulu (UTC)  18-Nov-2017 06:04:36
Local (UTC-5)  18-Nov-2017 01:04:36
 
METAR
KAUG 
13nm NE 
180553Z AUTO 27011G17KT 10SM CLR M03/M10 A2991 RMK AO2 SLP133 T10281100 11022 21028 51007
KLEW 
14nm SW 
180556Z AUTO 35006KT 10SM CLR M03/M10 A2995 RMK AO2 SLP157 T10331100 11022 21039 51005 FZRANO
KIWI 
18nm SE 
180553Z AUTO VRB04KT 10SM CLR M02/M09 A2995 RMK AO2 SLP143 T10221089 11006 21028 50007
TAF
KAUG 
13nm NE 
180531Z 1806/1906 28009KT P6SM SKC FM181900 19006KT P6SM BKN250 FM190000 13005KT 4SM -RA OVC025 FM190400 13005KT 4SM -RA BR OVC008
NOTAMs
Click for the latest NOTAMs
NOTAMs are issued by the DoD/FAA and will open in a separate window not controlled by AirNav.

 

 
 

Would you like to see your business listed on this page?

 If your business provides an interesting product or service to pilots, flight crews, aircraft, or users of the Wales Airport, you should consider listing it here.  To start the listing process, click on the button below
 
Add a business
 

Other Pages about Wales Airport

Update a link
 
Copyright © AirNav, LLC. All rights reserved. Privacy Policy  Contact